sensor_id;sensor_type;location;lat;lon;timestamp;temperature;humidity
67157;SHT31;54086;50.126;8.710;2024-01-06T00:00:46;5.66;91.69
67157;SHT31;54086;50.126;8.710;2024-01-06T00:03:14;5.58;91.79
67157;SHT31;54086;50.126;8.710;2024-01-06T00:05:39;5.55;91.96
67157;SHT31;54086;50.126;8.710;2024-01-06T00:08:05;5.56;92.02
67157;SHT31;54086;50.126;8.710;2024-01-06T00:10:31;5.48;92.19
67157;SHT31;54086;50.126;8.710;2024-01-06T00:12:57;5.43;92.34
67157;SHT31;54086;50.126;8.710;2024-01-06T00:15:23;5.41;92.35
67157;SHT31;54086;50.126;8.710;2024-01-06T00:17:48;5.39;92.47
67157;SHT31;54086;50.126;8.710;2024-01-06T00:20:14;5.34;92.55
67157;SHT31;54086;50.126;8.710;2024-01-06T00:22:39;5.32;92.58
67157;SHT31;54086;50.126;8.710;2024-01-06T00:25:06;5.35;92.56
67157;SHT31;54086;50.126;8.710;2024-01-06T00:27:32;5.32;92.67
67157;SHT31;54086;50.126;8.710;2024-01-06T00:29:57;5.28;92.68
67157;SHT31;54086;50.126;8.710;2024-01-06T00:32:23;5.24;92.83
67157;SHT31;54086;50.126;8.710;2024-01-06T00:34:48;5.24;92.85
67157;SHT31;54086;50.126;8.710;2024-01-06T00:37:13;5.27;92.90
67157;SHT31;54086;50.126;8.710;2024-01-06T00:39:39;5.21;93.00
67157;SHT31;54086;50.126;8.710;2024-01-06T00:42:04;5.20;92.97
67157;SHT31;54086;50.126;8.710;2024-01-06T00:44:30;5.20;92.94
67157;SHT31;54086;50.126;8.710;2024-01-06T00:46:55;5.20;92.98
67157;SHT31;54086;50.126;8.710;2024-01-06T00:49:20;5.17;93.13
67157;SHT31;54086;50.126;8.710;2024-01-06T00:51:46;5.20;93.03
67157;SHT31;54086;50.126;8.710;2024-01-06T00:54:11;5.18;93.14
67157;SHT31;54086;50.126;8.710;2024-01-06T00:56:37;5.20;93.03
67157;SHT31;54086;50.126;8.710;2024-01-06T00:59:03;5.15;93.19
67157;SHT31;54086;50.126;8.710;2024-01-06T01:01:28;5.17;93.23
67157;SHT31;54086;50.126;8.710;2024-01-06T01:03:53;5.22;93.20
67157;SHT31;54086;50.126;8.710;2024-01-06T01:06:19;5.25;93.13
67157;SHT31;54086;50.126;8.710;2024-01-06T01:08:45;5.22;93.20
67157;SHT31;54086;50.126;8.710;2024-01-06T01:11:10;5.24;93.16
67157;SHT31;54086;50.126;8.710;2024-01-06T01:13:36;5.27;93.03
67157;SHT31;54086;50.126;8.710;2024-01-06T01:16:01;5.27;93.08
67157;SHT31;54086;50.126;8.710;2024-01-06T01:18:28;5.32;92.99
67157;SHT31;54086;50.126;8.710;2024-01-06T01:20:53;5.34;92.89
67157;SHT31;54086;50.126;8.710;2024-01-06T01:23:19;5.31;92.89
67157;SHT31;54086;50.126;8.710;2024-01-06T01:25:44;5.29;92.90
67157;SHT31;54086;50.126;8.710;2024-01-06T01:28:09;5.39;92.83
67157;SHT31;54086;50.126;8.710;2024-01-06T01:30:35;5.36;92.70
67157;SHT31;54086;50.126;8.710;2024-01-06T01:33:00;5.38;92.74
67157;SHT31;54086;50.126;8.710;2024-01-06T01:35:26;5.45;92.62
67157;SHT31;54086;50.126;8.710;2024-01-06T01:37:51;5.43;92.39
67157;SHT31;54086;50.126;8.710;2024-01-06T01:40:16;5.43;92.53
67157;SHT31;54086;50.126;8.710;2024-01-06T01:42:43;5.45;92.43
67157;SHT31;54086;50.126;8.710;2024-01-06T01:45:08;5.41;92.50
67157;SHT31;54086;50.126;8.710;2024-01-06T01:47:34;5.52;92.44
67157;SHT31;54086;50.126;8.710;2024-01-06T01:50:00;5.48;92.29
67157;SHT31;54086;50.126;8.710;2024-01-06T01:52:26;5.52;92.30
67157;SHT31;54086;50.126;8.710;2024-01-06T01:54:52;5.46;92.26
67157;SHT31;54086;50.126;8.710;2024-01-06T01:57:18;5.52;92.31
67157;SHT31;54086;50.126;8.710;2024-01-06T01:59:43;5.49;92.47
67157;SHT31;54086;50.126;8.710;2024-01-06T02:02:09;5.45;92.39
67157;SHT31;54086;50.126;8.710;2024-01-06T02:04:35;5.50;92.40
67157;SHT31;54086;50.126;8.710;2024-01-06T02:07:00;5.49;92.42
67157;SHT31;54086;50.126;8.710;2024-01-06T02:09:26;5.55;92.39
67157;SHT31;54086;50.126;8.710;2024-01-06T02:11:56;5.58;92.39
67157;SHT31;54086;50.126;8.710;2024-01-06T02:14:22;5.62;92.25
67157;SHT31;54086;50.126;8.710;2024-01-06T02:16:47;5.67;92.20
67157;SHT31;54086;50.126;8.710;2024-01-06T02:19:13;5.77;91.86
67157;SHT31;54086;50.126;8.710;2024-01-06T02:21:42;5.77;91.91
67157;SHT31;54086;50.126;8.710;2024-01-06T02:24:08;5.83;91.87
67157;SHT31;54086;50.126;8.710;2024-01-06T02:26:34;5.77;91.46
67157;SHT31;54086;50.126;8.710;2024-01-06T02:28:59;5.70;91.72
67157;SHT31;54086;50.126;8.710;2024-01-06T02:31:25;5.60;91.97
67157;SHT31;54086;50.126;8.710;2024-01-06T02:33:50;5.59;92.37
67157;SHT31;54086;50.126;8.710;2024-01-06T02:36:16;5.58;92.24
67157;SHT31;54086;50.126;8.710;2024-01-06T02:38:42;5.58;92.22
67157;SHT31;54086;50.126;8.710;2024-01-06T02:41:07;5.63;92.25
67157;SHT31;54086;50.126;8.710;2024-01-06T02:43:33;5.77;91.99
67157;SHT31;54086;50.126;8.710;2024-01-06T02:45:58;5.81;91.77
67157;SHT31;54086;50.126;8.710;2024-01-06T02:48:24;5.86;91.24
67157;SHT31;54086;50.126;8.710;2024-01-06T02:50:49;5.89;90.99
67157;SHT31;54086;50.126;8.710;2024-01-06T02:53:14;5.91;90.85
67157;SHT31;54086;50.126;8.710;2024-01-06T02:55:40;5.93;90.77
67157;SHT31;54086;50.126;8.710;2024-01-06T02:58:05;5.90;90.86
67157;SHT31;54086;50.126;8.710;2024-01-06T03:00:31;5.96;90.72
67157;SHT31;54086;50.126;8.710;2024-01-06T03:02:56;5.94;90.83
67157;SHT31;54086;50.126;8.710;2024-01-06T03:05:21;5.97;90.74
67157;SHT31;54086;50.126;8.710;2024-01-06T03:07:47;5.99;90.70
67157;SHT31;54086;50.126;8.710;2024-01-06T03:10:12;6.03;90.61
67157;SHT31;54086;50.126;8.710;2024-01-06T03:12:37;6.03;90.34
67157;SHT31;54086;50.126;8.710;2024-01-06T03:15:03;6.06;90.27
67157;SHT31;54086;50.126;8.710;2024-01-06T03:17:28;6.06;90.31
67157;SHT31;54086;50.126;8.710;2024-01-06T03:19:54;6.11;90.10
67157;SHT31;54086;50.126;8.710;2024-01-06T03:22:20;6.10;90.11
67157;SHT31;54086;50.126;8.710;2024-01-06T03:24:45;6.13;89.97
67157;SHT31;54086;50.126;8.710;2024-01-06T03:27:10;6.13;89.93
67157;SHT31;54086;50.126;8.710;2024-01-06T03:29:36;6.14;90.10
67157;SHT31;54086;50.126;8.710;2024-01-06T03:32:01;6.21;89.89
67157;SHT31;54086;50.126;8.710;2024-01-06T03:34:27;6.09;90.25
67157;SHT31;54086;50.126;8.710;2024-01-06T03:36:52;6.10;90.31
67157;SHT31;54086;50.126;8.710;2024-01-06T03:39:17;6.07;90.36
67157;SHT31;54086;50.126;8.710;2024-01-06T03:41:43;6.11;90.44
67157;SHT31;54086;50.126;8.710;2024-01-06T03:44:08;6.13;90.40
67157;SHT31;54086;50.126;8.710;2024-01-06T03:46:35;6.10;90.45
67157;SHT31;54086;50.126;8.710;2024-01-06T03:49:00;6.16;90.29
67157;SHT31;54086;50.126;8.710;2024-01-06T03:51:26;6.16;90.19
67157;SHT31;54086;50.126;8.710;2024-01-06T03:53:51;6.16;90.46
67157;SHT31;54086;50.126;8.710;2024-01-06T03:56:16;6.11;90.27
67157;SHT31;54086;50.126;8.710;2024-01-06T03:58:42;6.09;90.55
67157;SHT31;54086;50.126;8.710;2024-01-06T04:01:07;6.14;90.63
67157;SHT31;54086;50.126;8.710;2024-01-06T04:03:32;6.20;90.48
67157;SHT31;54086;50.126;8.710;2024-01-06T04:05:58;6.21;90.47
67157;SHT31;54086;50.126;8.710;2024-01-06T04:08:23;6.18;90.66
67157;SHT31;54086;50.126;8.710;2024-01-06T04:10:49;6.22;90.40
67157;SHT31;54086;50.126;8.710;2024-01-06T04:13:15;6.25;90.39
67157;SHT31;54086;50.126;8.710;2024-01-06T04:15:40;6.22;90.26
67157;SHT31;54086;50.126;8.710;2024-01-06T04:18:06;6.27;90.26
67157;SHT31;54086;50.126;8.710;2024-01-06T04:20:32;6.21;90.41
67157;SHT31;54086;50.126;8.710;2024-01-06T04:22:58;6.25;90.24
67157;SHT31;54086;50.126;8.710;2024-01-06T04:25:24;6.20;90.40
67157;SHT31;54086;50.126;8.710;2024-01-06T04:27:49;6.18;90.49
67157;SHT31;54086;50.126;8.710;2024-01-06T04:30:15;6.21;90.28
67157;SHT31;54086;50.126;8.710;2024-01-06T04:32:41;6.13;90.31
67157;SHT31;54086;50.126;8.710;2024-01-06T04:35:07;6.09;90.43
67157;SHT31;54086;50.126;8.710;2024-01-06T04:37:33;6.10;90.52
67157;SHT31;54086;50.126;8.710;2024-01-06T04:39:58;5.94;90.90
67157;SHT31;54086;50.126;8.710;2024-01-06T04:42:24;5.81;91.26
67157;SHT31;54086;50.126;8.710;2024-01-06T04:44:50;5.80;91.47
67157;SHT31;54086;50.126;8.710;2024-01-06T04:47:15;5.72;91.75
67157;SHT31;54086;50.126;8.710;2024-01-06T04:49:41;5.66;92.05
67157;SHT31;54086;50.126;8.710;2024-01-06T04:52:06;5.67;92.14
67157;SHT31;54086;50.126;8.710;2024-01-06T04:54:31;5.69;92.21
67157;SHT31;54086;50.126;8.710;2024-01-06T04:56:58;5.53;92.33
67157;SHT31;54086;50.126;8.710;2024-01-06T04:59:23;5.56;92.45
67157;SHT31;54086;50.126;8.710;2024-01-06T05:01:50;5.55;92.63
67157;SHT31;54086;50.126;8.710;2024-01-06T05:04:17;5.50;92.74
67157;SHT31;54086;50.126;8.710;2024-01-06T05:06:42;5.52;92.62
67157;SHT31;54086;50.126;8.710;2024-01-06T05:09:07;5.52;92.68
67157;SHT31;54086;50.126;8.710;2024-01-06T05:11:33;5.52;92.66
67157;SHT31;54086;50.126;8.710;2024-01-06T05:13:58;5.56;92.55
67157;SHT31;54086;50.126;8.710;2024-01-06T05:16:23;5.60;92.47
67157;SHT31;54086;50.126;8.710;2024-01-06T05:18:49;5.62;92.47
67157;SHT31;54086;50.126;8.710;2024-01-06T05:21:14;5.63;92.51
67157;SHT31;54086;50.126;8.710;2024-01-06T05:23:39;5.72;92.41
67157;SHT31;54086;50.126;8.710;2024-01-06T05:26:05;5.77;92.34
67157;SHT31;54086;50.126;8.710;2024-01-06T05:28:31;5.86;92.22
67157;SHT31;54086;50.126;8.710;2024-01-06T05:30:56;5.85;92.02
67157;SHT31;54086;50.126;8.710;2024-01-06T05:33:22;5.89;92.03
67157;SHT31;54086;50.126;8.710;2024-01-06T05:35:47;5.81;92.15
67157;SHT31;54086;50.126;8.710;2024-01-06T05:38:13;5.89;91.88
67157;SHT31;54086;50.126;8.710;2024-01-06T05:40:38;5.80;92.23
67157;SHT31;54086;50.126;8.710;2024-01-06T05:43:03;5.74;92.49
67157;SHT31;54086;50.126;8.710;2024-01-06T05:45:29;5.70;92.37
67157;SHT31;54086;50.126;8.710;2024-01-06T05:47:54;5.74;92.40
67157;SHT31;54086;50.126;8.710;2024-01-06T05:50:19;5.86;92.45
67157;SHT31;54086;50.126;8.710;2024-01-06T05:52:45;5.73;92.73
67157;SHT31;54086;50.126;8.710;2024-01-06T05:55:12;5.66;92.90
67157;SHT31;54086;50.126;8.710;2024-01-06T05:57:38;5.62;93.14
67157;SHT31;54086;50.126;8.710;2024-01-06T06:00:07;5.63;93.09
67157;SHT31;54086;50.126;8.710;2024-01-06T06:02:32;5.59;93.27
67157;SHT31;54086;50.126;8.710;2024-01-06T06:04:58;5.58;93.24
67157;SHT31;54086;50.126;8.710;2024-01-06T06:07:23;5.60;93.40
67157;SHT31;54086;50.126;8.710;2024-01-06T06:09:49;5.50;93.47
67157;SHT31;54086;50.126;8.710;2024-01-06T06:12:14;5.49;93.69
67157;SHT31;54086;50.126;8.710;2024-01-06T06:14:40;5.49;93.72
67157;SHT31;54086;50.126;8.710;2024-01-06T06:17:05;5.49;93.64
67157;SHT31;54086;50.126;8.710;2024-01-06T06:19:31;5.45;93.81
67157;SHT31;54086;50.126;8.710;2024-01-06T06:21:57;5.43;93.87
67157;SHT31;54086;50.126;8.710;2024-01-06T06:24:22;5.53;93.76
67157;SHT31;54086;50.126;8.710;2024-01-06T06:26:48;5.58;93.42
67157;SHT31;54086;50.126;8.710;2024-01-06T06:29:13;5.60;93.43
67157;SHT31;54086;50.126;8.710;2024-01-06T06:31:38;5.63;93.38
67157;SHT31;54086;50.126;8.710;2024-01-06T06:34:04;5.66;93.30
67157;SHT31;54086;50.126;8.710;2024-01-06T06:36:29;5.66;93.29
67157;SHT31;54086;50.126;8.710;2024-01-06T06:38:54;5.53;93.50
67157;SHT31;54086;50.126;8.710;2024-01-06T06:41:23;5.56;93.60
67157;SHT31;54086;50.126;8.710;2024-01-06T06:43:48;5.53;93.72
67157;SHT31;54086;50.126;8.710;2024-01-06T06:46:13;5.56;93.70
67157;SHT31;54086;50.126;8.710;2024-01-06T06:48:39;5.56;93.76
67157;SHT31;54086;50.126;8.710;2024-01-06T06:51:05;5.56;93.75
67157;SHT31;54086;50.126;8.710;2024-01-06T06:53:30;5.48;93.78
67157;SHT31;54086;50.126;8.710;2024-01-06T06:55:56;5.49;94.09
67157;SHT31;54086;50.126;8.710;2024-01-06T06:58:21;5.46;94.12
67157;SHT31;54086;50.126;8.710;2024-01-06T07:00:47;5.46;94.09
67157;SHT31;54086;50.126;8.710;2024-01-06T07:03:12;5.48;94.08
67157;SHT31;54086;50.126;8.710;2024-01-06T07:05:39;5.43;94.07
67157;SHT31;54086;50.126;8.710;2024-01-06T07:08:04;5.42;94.26
67157;SHT31;54086;50.126;8.710;2024-01-06T07:10:30;5.45;94.26
67157;SHT31;54086;50.126;8.710;2024-01-06T07:12:55;5.48;94.18
67157;SHT31;54086;50.126;8.710;2024-01-06T07:15:21;5.52;94.02
67157;SHT31;54086;50.126;8.710;2024-01-06T07:17:46;5.46;94.02
67157;SHT31;54086;50.126;8.710;2024-01-06T07:20:12;5.52;93.84
67157;SHT31;54086;50.126;8.710;2024-01-06T07:22:37;5.59;93.95
67157;SHT31;54086;50.126;8.710;2024-01-06T07:25:03;5.55;93.88
67157;SHT31;54086;50.126;8.710;2024-01-06T07:27:28;5.48;94.14
67157;SHT31;54086;50.126;8.710;2024-01-06T07:29:54;5.49;94.23
67157;SHT31;54086;50.126;8.710;2024-01-06T07:32:22;5.49;94.22
67157;SHT31;54086;50.126;8.710;2024-01-06T07:34:47;5.53;94.19
67157;SHT31;54086;50.126;8.710;2024-01-06T07:37:12;5.58;94.07
67157;SHT31;54086;50.126;8.710;2024-01-06T07:39:38;5.65;94.06
67157;SHT31;54086;50.126;8.710;2024-01-06T07:42:03;5.60;94.10
67157;SHT31;54086;50.126;8.710;2024-01-06T07:44:29;5.62;94.00
67157;SHT31;54086;50.126;8.710;2024-01-06T07:46:54;5.59;93.97
67157;SHT31;54086;50.126;8.710;2024-01-06T07:49:20;5.63;93.95
67157;SHT31;54086;50.126;8.710;2024-01-06T07:51:45;5.70;93.79
67157;SHT31;54086;50.126;8.710;2024-01-06T07:54:11;5.73;93.60
67157;SHT31;54086;50.126;8.710;2024-01-06T07:56:37;5.74;93.48
67157;SHT31;54086;50.126;8.710;2024-01-06T07:59:03;5.69;93.77
67157;SHT31;54086;50.126;8.710;2024-01-06T08:01:29;5.72;93.53
67157;SHT31;54086;50.126;8.710;2024-01-06T08:03:54;5.74;93.41
67157;SHT31;54086;50.126;8.710;2024-01-06T08:06:20;5.69;93.55
67157;SHT31;54086;50.126;8.710;2024-01-06T08:08:45;5.76;93.57
67157;SHT31;54086;50.126;8.710;2024-01-06T08:11:13;5.74;93.85
67157;SHT31;54086;50.126;8.710;2024-01-06T08:13:39;5.83;94.26
67157;SHT31;54086;50.126;8.710;2024-01-06T08:16:04;5.77;94.34
67157;SHT31;54086;50.126;8.710;2024-01-06T08:18:30;5.74;94.85
67157;SHT31;54086;50.126;8.710;2024-01-06T08:20:55;5.63;95.09
67157;SHT31;54086;50.126;8.710;2024-01-06T08:23:20;5.60;95.06
67157;SHT31;54086;50.126;8.710;2024-01-06T08:25:46;5.56;95.57
67157;SHT31;54086;50.126;8.710;2024-01-06T08:28:12;5.56;95.63
67157;SHT31;54086;50.126;8.710;2024-01-06T08:30:40;5.67;95.94
67157;SHT31;54086;50.126;8.710;2024-01-06T08:33:05;5.67;95.61
67157;SHT31;54086;50.126;8.710;2024-01-06T08:35:30;5.66;95.53
67157;SHT31;54086;50.126;8.710;2024-01-06T08:37:56;5.63;95.81
67157;SHT31;54086;50.126;8.710;2024-01-06T08:40:22;5.72;95.77
67157;SHT31;54086;50.126;8.710;2024-01-06T08:42:47;5.70;95.68
67157;SHT31;54086;50.126;8.710;2024-01-06T08:45:13;5.81;95.37
67157;SHT31;54086;50.126;8.710;2024-01-06T08:47:38;5.90;95.23
67157;SHT31;54086;50.126;8.710;2024-01-06T08:50:04;5.76;94.99
67157;SHT31;54086;50.126;8.710;2024-01-06T08:52:30;5.76;95.52
67157;SHT31;54086;50.126;8.710;2024-01-06T08:54:55;5.86;95.55
67157;SHT31;54086;50.126;8.710;2024-01-06T08:57:20;5.87;95.26
67157;SHT31;54086;50.126;8.710;2024-01-06T08:59:46;5.86;95.22
67157;SHT31;54086;50.126;8.710;2024-01-06T09:02:11;5.94;95.37
67157;SHT31;54086;50.126;8.710;2024-01-06T09:04:38;5.80;95.22
67157;SHT31;54086;50.126;8.710;2024-01-06T09:07:03;5.81;95.50
67157;SHT31;54086;50.126;8.710;2024-01-06T09:09:29;5.81;95.42
67157;SHT31;54086;50.126;8.710;2024-01-06T09:11:55;5.90;95.62
67157;SHT31;54086;50.126;8.710;2024-01-06T09:14:20;5.93;95.53
67157;SHT31;54086;50.126;8.710;2024-01-06T09:16:46;5.86;95.19
67157;SHT31;54086;50.126;8.710;2024-01-06T09:19:11;5.81;95.16
67157;SHT31;54086;50.126;8.710;2024-01-06T09:21:36;5.87;95.41
67157;SHT31;54086;50.126;8.710;2024-01-06T09:24:02;5.89;95.60
67157;SHT31;54086;50.126;8.710;2024-01-06T09:26:32;5.90;95.39
67157;SHT31;54086;50.126;8.710;2024-01-06T09:28:57;5.90;95.72
67157;SHT31;54086;50.126;8.710;2024-01-06T09:31:23;5.93;95.62
67157;SHT31;54086;50.126;8.710;2024-01-06T09:33:49;5.91;95.59
67157;SHT31;54086;50.126;8.710;2024-01-06T09:36:15;5.97;95.63
67157;SHT31;54086;50.126;8.710;2024-01-06T09:38:40;5.83;95.62
67157;SHT31;54086;50.126;8.710;2024-01-06T09:41:06;5.72;95.82
67157;SHT31;54086;50.126;8.710;2024-01-06T09:43:31;5.79;95.79
67157;SHT31;54086;50.126;8.710;2024-01-06T09:46:05;5.76;95.96
67157;SHT31;54086;50.126;8.710;2024-01-06T09:48:35;5.83;96.02
67157;SHT31;54086;50.126;8.710;2024-01-06T09:51:06;5.85;95.76
67157;SHT31;54086;50.126;8.710;2024-01-06T09:53:36;5.80;95.92
67157;SHT31;54086;50.126;8.710;2024-01-06T09:56:05;5.86;96.14
67157;SHT31;54086;50.126;8.710;2024-01-06T09:58:34;5.87;95.96
67157;SHT31;54086;50.126;8.710;2024-01-06T10:01:00;5.87;95.97
67157;SHT31;54086;50.126;8.710;2024-01-06T10:03:27;5.96;95.87
67157;SHT31;54086;50.126;8.710;2024-01-06T10:05:52;5.96;95.96
67157;SHT31;54086;50.126;8.710;2024-01-06T10:08:18;5.99;95.82
67157;SHT31;54086;50.126;8.710;2024-01-06T10:10:44;6.06;95.71
67157;SHT31;54086;50.126;8.710;2024-01-06T10:13:10;6.04;95.58
67157;SHT31;54086;50.126;8.710;2024-01-06T10:15:36;6.00;95.59
67157;SHT31;54086;50.126;8.710;2024-01-06T10:18:01;6.01;95.83
67157;SHT31;54086;50.126;8.710;2024-01-06T10:20:28;6.01;95.77
67157;SHT31;54086;50.126;8.710;2024-01-06T10:22:54;6.07;95.77
67157;SHT31;54086;50.126;8.710;2024-01-06T10:25:23;6.11;95.66
67157;SHT31;54086;50.126;8.710;2024-01-06T10:27:48;6.13;95.67
67157;SHT31;54086;50.126;8.710;2024-01-06T10:30:14;6.24;95.41
67157;SHT31;54086;50.126;8.710;2024-01-06T10:32:43;6.34;95.10
67157;SHT31;54086;50.126;8.710;2024-01-06T10:35:09;6.27;95.03
67157;SHT31;54086;50.126;8.710;2024-01-06T10:37:35;6.30;95.21
67157;SHT31;54086;50.126;8.710;2024-01-06T10:40:09;6.16;95.45
67157;SHT31;54086;50.126;8.710;2024-01-06T10:42:36;6.25;95.43
67157;SHT31;54086;50.126;8.710;2024-01-06T10:45:03;6.31;95.71
67157;SHT31;54086;50.126;8.710;2024-01-06T10:47:30;6.30;95.29
67157;SHT31;54086;50.126;8.710;2024-01-06T10:49:59;6.22;95.26
67157;SHT31;54086;50.126;8.710;2024-01-06T10:52:26;6.25;95.36
67157;SHT31;54086;50.126;8.710;2024-01-06T10:54:53;6.24;95.36
67157;SHT31;54086;50.126;8.710;2024-01-06T10:57:19;6.28;95.46
67157;SHT31;54086;50.126;8.710;2024-01-06T10:59:49;6.24;95.57
67157;SHT31;54086;50.126;8.710;2024-01-06T11:02:15;6.37;95.44
67157;SHT31;54086;50.126;8.710;2024-01-06T11:04:45;6.37;95.15
67157;SHT31;54086;50.126;8.710;2024-01-06T11:07:12;6.51;95.14
67157;SHT31;54086;50.126;8.710;2024-01-06T11:09:44;6.52;94.65
67157;SHT31;54086;50.126;8.710;2024-01-06T11:12:12;6.59;94.98
67157;SHT31;54086;50.126;8.710;2024-01-06T11:14:38;6.61;94.57
67157;SHT31;54086;50.126;8.710;2024-01-06T11:17:03;6.62;94.66
67157;SHT31;54086;50.126;8.710;2024-01-06T11:22:40;6.96;94.36
67157;SHT31;54086;50.126;8.710;2024-01-06T11:25:08;6.92;93.77
67157;SHT31;54086;50.126;8.710;2024-01-06T11:27:35;6.88;93.69
67157;SHT31;54086;50.126;8.710;2024-01-06T11:30:03;6.62;93.93
67157;SHT31;54086;50.126;8.710;2024-01-06T11:32:39;6.62;94.18
67157;SHT31;54086;50.126;8.710;2024-01-06T11:35:07;6.69;94.18
67157;SHT31;54086;50.126;8.710;2024-01-06T11:37:51;6.72;94.20
67157;SHT31;54086;50.126;8.710;2024-01-06T11:45:27;6.90;93.60
67157;SHT31;54086;50.126;8.710;2024-01-06T11:47:55;6.93;93.65
67157;SHT31;54086;50.126;8.710;2024-01-06T11:50:24;6.90;93.76
67157;SHT31;54086;50.126;8.710;2024-01-06T11:52:49;6.88;93.63
67157;SHT31;54086;50.126;8.710;2024-01-06T11:55:17;7.16;93.35
67157;SHT31;54086;50.126;8.710;2024-01-06T11:57:43;7.34;92.76
67157;SHT31;54086;50.126;8.710;2024-01-06T12:00:09;7.40;92.84
67157;SHT31;54086;50.126;8.710;2024-01-06T12:02:35;7.47;92.42
67157;SHT31;54086;50.126;8.710;2024-01-06T12:05:00;7.26;92.74
67157;SHT31;54086;50.126;8.710;2024-01-06T12:07:26;7.28;92.89
67157;SHT31;54086;50.126;8.710;2024-01-06T12:10:00;7.44;92.57
67157;SHT31;54086;50.126;8.710;2024-01-06T12:12:26;7.52;92.64
67157;SHT31;54086;50.126;8.710;2024-01-06T12:14:51;7.38;92.62
67157;SHT31;54086;50.126;8.710;2024-01-06T12:17:17;7.38;92.51
67157;SHT31;54086;50.126;8.710;2024-01-06T12:19:45;7.20;92.65
67157;SHT31;54086;50.126;8.710;2024-01-06T12:22:12;7.31;92.77
67157;SHT31;54086;50.126;8.710;2024-01-06T12:24:39;7.38;92.79
67157;SHT31;54086;50.126;8.710;2024-01-06T12:27:07;7.50;92.45
67157;SHT31;54086;50.126;8.710;2024-01-06T12:29:38;7.41;92.10
67157;SHT31;54086;50.126;8.710;2024-01-06T12:32:05;7.31;92.65
67157;SHT31;54086;50.126;8.710;2024-01-06T12:34:30;7.38;92.84
67157;SHT31;54086;50.126;8.710;2024-01-06T12:36:55;7.37;92.76
67157;SHT31;54086;50.126;8.710;2024-01-06T12:39:21;7.52;92.93
67157;SHT31;54086;50.126;8.710;2024-01-06T12:41:50;7.57;92.41
67157;SHT31;54086;50.126;8.710;2024-01-06T12:44:16;7.58;92.13
67157;SHT31;54086;50.126;8.710;2024-01-06T12:46:42;7.58;92.01
67157;SHT31;54086;50.126;8.710;2024-01-06T12:49:08;7.67;92.07
67157;SHT31;54086;50.126;8.710;2024-01-06T12:51:33;7.71;92.31
67157;SHT31;54086;50.126;8.710;2024-01-06T12:54:00;7.83;92.41
67157;SHT31;54086;50.126;8.710;2024-01-06T12:56:25;7.75;91.79
67157;SHT31;54086;50.126;8.710;2024-01-06T12:58:51;7.79;91.14
67157;SHT31;54086;50.126;8.710;2024-01-06T13:01:16;7.72;91.22
67157;SHT31;54086;50.126;8.710;2024-01-06T13:03:42;7.77;91.54
67157;SHT31;54086;50.126;8.710;2024-01-06T13:06:08;7.81;91.71
67157;SHT31;54086;50.126;8.710;2024-01-06T13:08:34;7.83;91.78
67157;SHT31;54086;50.126;8.710;2024-01-06T13:11:00;7.95;91.62
67157;SHT31;54086;50.126;8.710;2024-01-06T13:13:25;7.92;91.13
67157;SHT31;54086;50.126;8.710;2024-01-06T13:15:51;7.92;91.71
67157;SHT31;54086;50.126;8.710;2024-01-06T13:18:16;7.93;91.39
67157;SHT31;54086;50.126;8.710;2024-01-06T13:20:44;8.00;91.30
67157;SHT31;54086;50.126;8.710;2024-01-06T13:23:10;7.99;91.09
67157;SHT31;54086;50.126;8.710;2024-01-06T13:25:38;7.91;90.55
67157;SHT31;54086;50.126;8.710;2024-01-06T13:28:05;7.96;90.47
67157;SHT31;54086;50.126;8.710;2024-01-06T13:30:31;7.96;90.49
67157;SHT31;54086;50.126;8.710;2024-01-06T13:32:57;7.93;90.82
67157;SHT31;54086;50.126;8.710;2024-01-06T13:35:24;7.95;90.52
67157;SHT31;54086;50.126;8.710;2024-01-06T13:37:54;7.98;90.62
67157;SHT31;54086;50.126;8.710;2024-01-06T13:40:22;8.06;90.80
67157;SHT31;54086;50.126;8.710;2024-01-06T13:42:48;8.09;91.03
67157;SHT31;54086;50.126;8.710;2024-01-06T13:45:14;8.05;90.53
67157;SHT31;54086;50.126;8.710;2024-01-06T13:47:41;7.96;90.52
67157;SHT31;54086;50.126;8.710;2024-01-06T13:50:12;7.99;90.70
67157;SHT31;54086;50.126;8.710;2024-01-06T13:52:38;7.96;90.53
67157;SHT31;54086;50.126;8.710;2024-01-06T13:55:04;7.95;89.94
67157;SHT31;54086;50.126;8.710;2024-01-06T13:57:29;7.96;90.50
67157;SHT31;54086;50.126;8.710;2024-01-06T13:59:54;7.82;89.71
67157;SHT31;54086;50.126;8.710;2024-01-06T14:02:20;7.82;89.81
67157;SHT31;54086;50.126;8.710;2024-01-06T14:04:46;7.81;89.67
67157;SHT31;54086;50.126;8.710;2024-01-06T14:07:11;7.88;90.01
67157;SHT31;54086;50.126;8.710;2024-01-06T14:09:37;7.72;90.12
67157;SHT31;54086;50.126;8.710;2024-01-06T14:12:02;7.81;89.63
67157;SHT31;54086;50.126;8.710;2024-01-06T14:14:38;7.72;89.39
67157;SHT31;54086;50.126;8.710;2024-01-06T14:17:04;7.79;89.73
67157;SHT31;54086;50.126;8.710;2024-01-06T14:19:29;7.77;89.83
67157;SHT31;54086;50.126;8.710;2024-01-06T14:21:55;7.79;89.92
67157;SHT31;54086;50.126;8.710;2024-01-06T14:24:20;7.85;90.39
67157;SHT31;54086;50.126;8.710;2024-01-06T14:26:53;7.91;89.93
67157;SHT31;54086;50.126;8.710;2024-01-06T14:29:19;7.85;90.19
67157;SHT31;54086;50.126;8.710;2024-01-06T14:31:44;7.91;90.28
67157;SHT31;54086;50.126;8.710;2024-01-06T14:34:10;7.85;90.16
67157;SHT31;54086;50.126;8.710;2024-01-06T14:36:36;7.78;90.00
67157;SHT31;54086;50.126;8.710;2024-01-06T14:39:01;7.83;90.41
67157;SHT31;54086;50.126;8.710;2024-01-06T14:41:29;7.74;90.24
67157;SHT31;54086;50.126;8.710;2024-01-06T14:43:54;7.65;90.27
67157;SHT31;54086;50.126;8.710;2024-01-06T14:46:20;7.61;89.87
67157;SHT31;54086;50.126;8.710;2024-01-06T14:48:45;7.64;89.60
67157;SHT31;54086;50.126;8.710;2024-01-06T14:51:11;7.52;88.65
67157;SHT31;54086;50.126;8.710;2024-01-06T14:53:36;7.51;89.05
67157;SHT31;54086;50.126;8.710;2024-01-06T14:56:01;7.55;88.81
67157;SHT31;54086;50.126;8.710;2024-01-06T14:58:28;7.55;88.63
67157;SHT31;54086;50.126;8.710;2024-01-06T15:00:54;7.60;88.37
67157;SHT31;54086;50.126;8.710;2024-01-06T15:03:20;7.61;88.05
67157;SHT31;54086;50.126;8.710;2024-01-06T15:05:45;7.61;88.17
67157;SHT31;54086;50.126;8.710;2024-01-06T15:08:11;7.58;88.15
67157;SHT31;54086;50.126;8.710;2024-01-06T15:10:36;7.58;87.89
67157;SHT31;54086;50.126;8.710;2024-01-06T15:13:02;7.54;88.10
67157;SHT31;54086;50.126;8.710;2024-01-06T15:15:28;7.52;87.84
67157;SHT31;54086;50.126;8.710;2024-01-06T15:17:54;7.58;87.86
67157;SHT31;54086;50.126;8.710;2024-01-06T15:20:19;7.47;88.34
67157;SHT31;54086;50.126;8.710;2024-01-06T15:22:45;7.40;88.10
67157;SHT31;54086;50.126;8.710;2024-01-06T15:25:10;7.30;88.49
67157;SHT31;54086;50.126;8.710;2024-01-06T15:27:36;7.38;88.31
67157;SHT31;54086;50.126;8.710;2024-01-06T15:30:01;7.30;88.00
67157;SHT31;54086;50.126;8.710;2024-01-06T15:32:28;7.28;88.05
67157;SHT31;54086;50.126;8.710;2024-01-06T15:34:53;7.26;87.99
67157;SHT31;54086;50.126;8.710;2024-01-06T15:37:18;7.27;88.22
67157;SHT31;54086;50.126;8.710;2024-01-06T15:39:44;7.21;88.45
67157;SHT31;54086;50.126;8.710;2024-01-06T15:42:09;7.27;88.05
67157;SHT31;54086;50.126;8.710;2024-01-06T15:44:35;7.28;88.42